ジュノー の空港の天気 - METARとTAF

ジュノー国際空港 ( PAJN / JNU ) - アメリカ アラスカ州ジュノー
飛行場実況気象(Metar)
観測時間08/04 09:53 AKDT (08/04 17:53 UTC)
風向・風速静穏 0m/s
視程10km以上
天気現象弱い雨
少しの雲 雲底高度 120m
全天の8割程度の雲 雲底高度 2290m
全天を覆う雲 雲底高度 2740m
気温14.4℃
湿度90%
気圧1008.6hPa
METARPAJN 041753Z 00000KT 8SM -RA FEW004 BKN075 OVC090 14/13 A2979 RMK AO2 RAE26B43 SLP086 P0000 60011 T01440128 10144 20133 53002
過去の天気等 Google飛行場航空写真 Wunderground天気予報

過去48時間のMETAR

飛行場予報(TAF)
発表時間: 8/04 09:24 AKDT (8/04 17:24 UTC)
予報対象時間: 4日10時 AKDT ~ 5日10時 AKDT
風向・風速不定 2m/s
視程10km以上
天気現象弱い雨
少しの雲 雲底高度 210m
全天の4割程度の雲 雲底高度 2130m
全天を覆う雲 雲底高度 3050m
4日12時 AKDT から
風向・風速南東 5m/s
視程10km以上
天気現象弱い雨
少しの雲 雲底高度 240m
全天を覆う雲 雲底高度 1520m
5日1時 AKDT から
風向・風速東南東 3m/s
視程10km以上
天気現象弱い雨
全天を覆う雲 雲底高度 1520m
5日5時 AKDT から
風向・風速東 2m/s
視程6440m
天気現象弱い雨
全天を覆う雲 雲底高度 1220m
PAJN 041724Z 0418/0518 VRB03KT P6SM -RA FEW007 SCT070 OVC100
FM042000 14009KT P6SM -RA FEW008 OVC050
FM050900 11006KT P6SM -RA OVC050
FM051300 09003KT 4SM -RA OVC040